EGAC Airport Information

Runway Information
Runway 04 Length 6001 ft width 148 ft
Elevation 13 ft Threshold 303 ft Heading 35
Runway 22 Length 6001 ft Width 148 ft
Elevation 12 ft Threshold ft Heading 215
Airport Frequencies
Type APP Name BELFAST AP Frequency 130.85 MHZ
Type ATIS Name ATIS Frequency 136.625 MHZ
Type TWR Name BELFAST TW Frequency 122.825 MHZ
Airport Navaids
Airport Weather Information & NOTAM
ADDS - METARS form results

(0428 UTC 11 August 2022)
Data provider http://aviationweather.gov/metar/data/
 
METAR text: EGAC 110420Z AUTO 19002KT 9999 NCD 13/11 Q1023
Conditions at: EGAC (BELFAST HARBOUR , GB) observed 0420 UTC 11 August 2022
Temperature: 13.0°C (55°F)
Dewpoint: 11.0°C (52°F) [RH = 88%]
Pressure (altimeter): 30.21 inches Hg (1023.0 mb)
Winds: from the S (190 degrees) at 2 MPH (2 knots; 1.0 m/s)
Visibility: 6 or more miles (10+ km)
Ceiling: at least 12,000 feet AGL
Clouds: sky clear below 12,000 feet AGL
Weather: no significant weather observed at this time

METAR text: EGAC 110350Z AUTO VRB01KT 9999 NCD 13/11 Q1023
Conditions at: EGAC (BELFAST HARBOUR , GB) observed 0350 UTC 11 August 2022
Temperature: 13.0°C (55°F)
Dewpoint: 11.0°C (52°F) [RH = 88%]
Pressure (altimeter): 30.21 inches Hg (1023.0 mb)
Winds: variable direction winds at 1 MPH (1 knots; 0.5 m/s)
Visibility: 6 or more miles (10+ km)
Ceiling: at least 12,000 feet AGL
Clouds: sky clear below 12,000 feet AGL
Weather: no significant weather observed at this time

Forecast for: EGAC (BELFAST HARBOUR , GB)
Text: TAF EGAC 101656Z 1018/1021 25005KT CAVOK
Forecast period: 1800 to 2100 UTC 10 August 2022
Forecast type: FROM: standard forecast or significant change
Winds: from the WSW (250 degrees) at 6 MPH (5 knots; 2.6 m/s)
Visibility: 6 or more miles (10+ km)
Ceiling: unknown
Clouds: missing
Weather: NSW  (no significant weather)
Text: BECMG 1018/1021 08010KT
Forecast period: 1800 to 2100 UTC 10 August 2022
Forecast type: BECOMING: Conditions expected to become as follows by 2100 UTC 10 August 2022
Winds: from the E (80 degrees) at 12 MPH (10 knots; 5.1 m/s)
Visibility: 6 or more miles (10+ km)
Ceiling: unknown
Clouds: missing
Weather: NSW  (no significant weather)